createdAt,value
2022-12-14T00:00:11.593Z,1416
2022-12-14T00:05:30.088Z,1412
2022-12-14T00:10:48.855Z,1406
2022-12-14T00:16:07.103Z,1397
2022-12-14T00:21:25.169Z,1430
2022-12-14T00:26:43.075Z,1475
2022-12-14T00:32:01.296Z,1478
2022-12-14T00:37:19.845Z,1493
2022-12-14T00:42:38.353Z,1508
2022-12-14T00:47:56.553Z,1515
2022-12-14T00:53:15.108Z,1524
2022-12-14T00:58:33.564Z,1528
2022-12-14T01:03:52.096Z,1540
2022-12-14T01:09:10.782Z,1538
2022-12-14T01:14:29.266Z,1543
2022-12-14T01:19:48.951Z,1560
2022-12-14T01:25:07.768Z,1562
2022-12-14T01:30:25.997Z,1563
2022-12-14T01:35:44.198Z,1533
2022-12-14T01:41:02.162Z,1534
2022-12-14T01:46:20.103Z,1514
2022-12-14T01:51:38.375Z,1527
2022-12-14T01:56:56.579Z,1537
2022-12-14T02:02:15.177Z,1500
2022-12-14T02:07:33.403Z,1482
2022-12-14T02:12:51.913Z,1487
2022-12-14T02:18:10.409Z,1501
2022-12-14T02:23:29.619Z,1478
2022-12-14T02:28:48.760Z,1469
2022-12-14T02:34:06.661Z,1491
2022-12-14T02:39:25.436Z,1489
2022-12-14T02:44:43.699Z,1479
2022-12-14T02:50:02.153Z,1473
2022-12-14T02:55:20.399Z,1473
2022-12-14T03:00:38.920Z,1503
2022-12-14T03:05:57.149Z,1504
2022-12-14T03:11:15.366Z,1506
2022-12-14T03:16:33.892Z,1519
2022-12-14T03:21:52.259Z,1504
2022-12-14T03:27:10.493Z,1493
2022-12-14T03:32:28.426Z,1503
2022-12-14T03:37:51.511Z,1509
2022-12-14T03:43:11.566Z,1512
2022-12-14T03:48:30.097Z,1508
2022-12-14T03:53:48.417Z,1525
2022-12-14T03:59:07.231Z,1517
2022-12-14T04:04:25.996Z,1493
2022-12-14T04:09:44.468Z,1460
2022-12-14T04:15:03.229Z,1454
2022-12-14T04:20:22.019Z,1455
2022-12-14T04:25:40.496Z,1474
2022-12-14T04:30:58.699Z,1496
2022-12-14T04:36:17.218Z,1484
2022-12-14T04:41:35.690Z,1457
2022-12-14T04:46:53.936Z,1488
2022-12-14T04:52:12.732Z,1509
2022-12-14T04:57:31.479Z,1483
2022-12-14T05:02:50.249Z,1451
2022-12-14T05:08:08.530Z,1422
2022-12-14T05:13:26.853Z,1418
2022-12-14T05:18:45.766Z,1415
2022-12-14T05:24:04.547Z,1421
2022-12-14T05:29:23.022Z,1429
2022-12-14T05:34:41.338Z,1316
2022-12-14T05:39:59.829Z,1251
2022-12-14T05:45:18.591Z,1294
2022-12-14T05:50:37.353Z,1310
2022-12-14T05:55:55.588Z,1318
2022-12-14T06:01:18.666Z,1348
2022-12-14T06:06:38.090Z,1338
2022-12-14T06:11:56.877Z,1331
2022-12-14T06:17:15.696Z,1300
2022-12-14T06:22:33.837Z,1289
2022-12-14T06:27:52.341Z,1275
2022-12-14T06:33:10.242Z,1266
2022-12-14T06:38:28.757Z,1248
2022-12-14T06:43:49.255Z,1233
2022-12-14T06:49:08.618Z,1221
2022-12-14T06:54:27.368Z,1220
2022-12-14T06:59:46.162Z,1203
2022-12-14T07:05:04.084Z,1187
2022-12-14T07:10:22.023Z,1184
2022-12-14T07:15:40.856Z,1172
2022-12-14T07:20:59.289Z,1174
2022-12-14T07:26:17.524Z,1165
2022-12-14T07:31:35.786Z,1161
2022-12-14T07:36:53.866Z,1160
2022-12-14T07:42:12.072Z,1153
2022-12-14T07:47:30.567Z,1142
2022-12-14T07:52:49.050Z,1139
2022-12-14T07:58:07.823Z,1126
2022-12-14T08:03:26.946Z,1119
2022-12-14T08:08:46.137Z,1111
2022-12-14T08:14:04.102Z,1109
2022-12-14T08:19:12.812Z,1109
2022-12-14T08:24:31.095Z,1102
2022-12-14T08:29:49.583Z,1106
2022-12-14T08:35:08.396Z,1101
2022-12-14T08:40:26.832Z,1094
2022-12-14T08:45:29.988Z,1087
2022-12-14T08:50:32.572Z,1081
2022-12-14T08:55:51.315Z,1077
2022-12-14T09:00:53.947Z,1078
2022-12-14T09:06:12.775Z,1078
2022-12-14T09:11:30.979Z,1076
2022-12-14T09:16:49.200Z,1069
2022-12-14T09:22:08.072Z,1057
2022-12-14T09:27:26.450Z,1052
2022-12-14T09:32:44.631Z,1047
2022-12-14T09:37:53.410Z,1044
2022-12-14T09:43:11.596Z,1034
2022-12-14T09:48:30.086Z,1024
2022-12-14T09:53:50.240Z,1019
2022-12-14T09:59:08.751Z,1012
2022-12-14T10:04:27.259Z,1006
2022-12-14T10:09:45.786Z,1003
2022-12-14T10:15:04.544Z,994
2022-12-14T10:25:54.695Z,977
2022-12-14T10:58:16.935Z,962
2022-12-14T11:03:35.529Z,967
2022-12-14T11:14:25.291Z,957
2022-12-14T11:19:44.090Z,947
2022-12-14T12:09:14.338Z,893
2022-12-14T12:14:33.097Z,892
2022-12-14T12:25:26.917Z,877
2022-12-14T12:36:26.275Z,862
2022-12-14T12:41:44.748Z,859
2022-12-14T12:53:06.153Z,848
2022-12-14T12:58:24.937Z,839
2022-12-14T13:03:43.340Z,863
2022-12-14T13:09:01.361Z,878
2022-12-14T13:14:19.872Z,870
2022-12-14T13:19:50.069Z,859
2022-12-14T13:25:14.051Z,857
2022-12-14T13:30:32.567Z,849
2022-12-14T13:35:51.300Z,846
2022-12-14T13:41:09.526Z,842
2022-12-14T13:46:27.998Z,844
2022-12-14T13:51:46.396Z,839
2022-12-14T13:57:08.880Z,837
2022-12-14T14:02:27.265Z,835
2022-12-14T14:07:46.758Z,832
2022-12-14T14:13:04.740Z,822
2022-12-14T14:18:22.690Z,830
2022-12-14T14:23:40.667Z,828
2022-12-14T14:28:59.406Z,844
2022-12-14T14:34:21.788Z,849
2022-12-14T14:39:56.823Z,883
2022-12-14T14:45:36.364Z,879
2022-12-14T14:50:55.634Z,874
2022-12-14T14:56:13.815Z,866
2022-12-14T15:01:32.335Z,863
2022-12-14T15:06:50.846Z,861
2022-12-14T15:12:09.319Z,856
2022-12-14T15:17:27.503Z,853
2022-12-14T15:22:46.319Z,853
2022-12-14T15:28:04.775Z,847
2022-12-14T15:33:23.228Z,845
2022-12-14T15:38:41.813Z,844
2022-12-14T15:44:00.492Z,846
2022-12-14T15:49:19.044Z,846
2022-12-14T15:54:37.531Z,841
2022-12-14T15:59:55.412Z,846
2022-12-14T16:05:13.887Z,835
2022-12-14T16:10:32.664Z,838
2022-12-14T16:15:50.598Z,837
2022-12-14T16:21:09.085Z,873
2022-12-14T16:26:27.573Z,899
2022-12-14T16:31:45.786Z,912
2022-12-14T16:37:31.415Z,913
2022-12-14T16:42:52.482Z,903
2022-12-14T16:48:10.643Z,892
2022-12-14T16:53:29.536Z,891
2022-12-14T16:58:49.197Z,896
2022-12-14T17:04:07.462Z,887
2022-12-14T17:09:26.170Z,878
2022-12-14T17:14:49.603Z,874
2022-12-14T17:20:13.546Z,865
2022-12-14T17:25:32.575Z,861
2022-12-14T17:30:51.099Z,869
2022-12-14T17:36:09.699Z,883
2022-12-14T17:41:27.639Z,887
2022-12-14T17:46:46.585Z,893
2022-12-14T17:52:04.834Z,893
2022-12-14T17:57:23.611Z,890
2022-12-14T18:02:42.280Z,900
2022-12-14T18:08:01.223Z,907
2022-12-14T18:13:19.423Z,913
2022-12-14T18:18:38.212Z,918
2022-12-14T18:23:56.840Z,938
2022-12-14T18:29:15.620Z,996
2022-12-14T18:34:34.397Z,1003
2022-12-14T18:39:53.210Z,1008
2022-12-14T18:45:12.663Z,1014
2022-12-14T18:50:31.181Z,1010
2022-12-14T18:55:49.640Z,1002
2022-12-14T19:01:08.138Z,983
2022-12-14T19:06:44.450Z,904
2022-12-14T19:12:04.050Z,916
2022-12-14T19:17:22.804Z,907
2022-12-14T19:22:41.632Z,898
2022-12-14T19:33:51.217Z,882
2022-12-14T19:39:09.611Z,882
2022-12-14T19:44:27.512Z,878
2022-12-14T19:49:46.312Z,879
2022-12-14T19:55:05.083Z,878
2022-12-14T20:00:23.530Z,876
2022-12-14T20:05:26.673Z,886
2022-12-14T20:10:45.188Z,886
2022-12-14T20:16:03.811Z,889
2022-12-14T20:21:06.779Z,895
2022-12-14T20:26:25.296Z,908
2022-12-14T20:31:43.829Z,914
2022-12-14T20:37:02.573Z,922
2022-12-14T20:42:21.330Z,967
2022-12-14T20:47:39.825Z,987
2022-12-14T20:52:58.632Z,1001
2022-12-14T20:58:16.556Z,1002
2022-12-14T21:03:35.879Z,1019
2022-12-14T21:08:55.185Z,1054
2022-12-14T21:14:13.113Z,1093
2022-12-14T21:19:31.802Z,1132
2022-12-14T21:25:02.766Z,1169
2022-12-14T21:30:24.993Z,1210
2022-12-14T21:35:43.622Z,1243
2022-12-14T21:41:01.833Z,1265
2022-12-14T21:46:20.375Z,1280
2022-12-14T21:51:47.107Z,1309
2022-12-14T21:57:08.058Z,1336
2022-12-14T22:02:26.776Z,1388
2022-12-14T22:07:45.910Z,1387
2022-12-14T22:13:04.578Z,1402
2022-12-14T22:18:23.107Z,1416
2022-12-14T22:23:43.674Z,1423
2022-12-14T22:29:02.850Z,1437
2022-12-14T22:34:21.067Z,1426
2022-12-14T22:39:39.275Z,1422
2022-12-14T22:44:57.999Z,1425
2022-12-14T22:50:16.755Z,1407
2022-12-14T22:55:35.068Z,1392
2022-12-14T23:00:53.544Z,1372
2022-12-14T23:06:11.756Z,1358
2022-12-14T23:11:31.014Z,1356
2022-12-14T23:16:49.946Z,1356
2022-12-14T23:22:08.538Z,1357
2022-12-14T23:27:26.440Z,1362
2022-12-14T23:32:45.240Z,1375
2022-12-14T23:38:04.020Z,1391
2022-12-14T23:43:22.490Z,1385
2022-12-14T23:48:41.240Z,1382
2022-12-14T23:53:59.747Z,1390
2022-12-14T23:59:19.991Z,1395
